CCGS Amundsen — CGDT — position and weather

sailwx.info

Track history (hours):
 
Tides and Currents Weather Stations Pressure Air Temp Water Temp Dewpoint Dewpoint Depression Visibility Wind Speed Wind Dir Waves Ship Positions

Oceanographic research ship CCGS Amundsen (Canada)

Detailed information on ship capabilities available from ARCUS's ALIAS (Arctic Logistics Information and Support) project.

Last reported at 2017-Sep-25 11:00 UTC. Time now 2017-Sep-25 11:52 UTC.
Position N 58°42' W 066°06'.

Length 98.3 m; beam 19.5 m; draft 7.3 m.

Type: SAR. MMSI: 316050000.

Wind from 300 at 6 knots

Barometer 1018.5 mb
Air temperature 1.7 ° C
Dewpoint -1.7 ° C

Date/timePositionNaut miles runAvg speedWind from/ knotsBaromVisibWave heightAir tempDewpointWater temp
2017-Sep-25 11:00N 58°42' W 066°06'0 0.0 300 / 61018.5 1.7-1.7
2017-Sep-25 10:00N 58°42' W 066°06'0 0.0 330 / 11018.2 2.0-1.9
2017-Sep-25 09:00N 58°42' W 066°06'0 0.0 320 / 51017.7 2.1-2.9
2017-Sep-25 08:00N 58°42' W 066°06'0 0.0 1017.4 1.8-2.5
2017-Sep-25 07:00N 58°42' W 066°06'0 0.0 300 / 121016.5 1.4-2.1 5.5
2017-Sep-25 06:00N 58°42' W 066°06'0 0.0 310 / 111016.1 1.6-2.7 5.6
2017-Sep-25 05:00N 58°42' W 066°06'0 0.0 340 / 171015.6 1.7-3.0
2017-Sep-25 04:00N 58°42' W 066°06'0 0.0 340 / 181015.3 1.9-1.8
2017-Sep-25 03:00N 58°42' W 066°06'0 0.0 330 / 211014.7 2.3-0.6
2017-Sep-25 02:00N 58°42' W 066°06'0 0.0 270 / 121014.5 3.2 0.2
2017-Sep-25 01:00N 58°42' W 066°06'0 0.0 240 / 121015.1 2.6-0.1
2017-Sep-25 00:00N 58°42' W 066°06'0 0.0 230 / 81015.8 2.2-0.2
2017-Sep-24 23:00N 58°42' W 066°06'0 0.0 240 / 61016.3 2.4-0.4
2017-Sep-24 22:00N 58°42' W 066°06'0 0.0 330 / 11016.4 3.1-1.2
2017-Sep-24 21:00N 58°42' W 066°06'0 0.0 340 / 21016.4 3.4-1.7
2017-Sep-24 20:00N 58°42' W 066°06'0 0.0 330 / 11015.9 3.2-2.4
2017-Sep-24 19:00N 58°42' W 066°06'0 0.0 310 / 141015.3 3.1-2.2
2017-Sep-24 18:00N 58°42' W 066°06'0 0.0 320 / 171015.1 2.4-1.2
2017-Sep-24 17:00N 58°42' W 066°06'0 0.0 320 / 161014.6 2.2-1.2
2017-Sep-24 16:00N 58°42' W 066°06'0 0.0 340 / 141014.1 2.0-0.5
2017-Sep-24 15:00N 58°42' W 066°06'0 0.0 340 / 141013.7 2.1-0.2
2017-Sep-24 14:00N 58°42' W 066°06'0 0.0 340 / 141013.8 2.5 0.5
2017-Sep-24 13:00N 58°42' W 066°06'0 0.0 300 / 121013.7 3.9 1.5
2017-Sep-24 12:00N 58°42' W 066°06'0 0.0 260 / 141014.1 2.9 1.1
2017-Sep-24 11:00N 58°42' W 066°06'0 0.0 240 / 151014.6 2.9 0.6
2017-Sep-24 10:00N 58°42' W 066°06'6 6.2 230 / 111015.0 2.8 0.5
2017-Sep-24 09:00N 58°42' W 065°54'0 0.0 150 / 121015.2 2.7-0.1
2017-Sep-24 08:00N 58°42' W 065°54'0 0.0 160 / 151015.2 2.1-0.5
2017-Sep-24 07:00N 58°42' W 065°54'0 0.0 150 / 141015.6 1.8-1.0
2017-Sep-24 06:00N 58°42' W 065°54'0 0.0 160 / 141016.3 1.6-0.6
2017-Sep-24 05:00N 58°42' W 065°54'0 0.0 170 / 101016.7 1.7-0.1
2017-Sep-24 04:00N 58°42' W 065°54'0 0.0 180 / 61017.3 1.2-0.7
2017-Sep-24 03:00N 58°42' W 065°54'0 0.0 220 / 41017.8 0.8-0.3
2017-Sep-24 02:00N 58°42' W 065°54'0 0.0 250 / 51018.2 0.8-0.7
2017-Sep-24 01:00N 58°42' W 065°54'0 0.0 230 / 41018.7 1.0-0.8
2017-Sep-24 00:00N 58°42' W 065°54'0 0.0 270 / 51019.3 1.6-0.5
2017-Sep-23 23:00N 58°42' W 065°54'0 0.0 290 / 41020.0 2.2-0.3
2017-Sep-23 22:00N 58°42' W 065°54'0 0.0 320 / 11019.9 3.2 0.5
2017-Sep-23 21:00N 58°42' W 065°54'0 0.0 320 / 31019.7 4.0 0.7
2017-Sep-23 19:00N 58°42' W 065°54'0 0.0 310 / 71017.8 4.5 1.3 6.4
2017-Sep-23 18:00N 58°42' W 065°54'0 0.0 070 / 11016.7 5.0 0.8 6.3
2017-Sep-23 17:00N 58°42' W 065°54'6 6.2 340 / 121016.0 4.5-2.2 5.9
2017-Sep-23 16:00N 58°42' W 066°06'0 0.0 350 / 171015.5 3.1-0.6
2017-Sep-23 15:00N 58°42' W 066°06'0 0.0 360 / 191016.6 3.3-0.6
2017-Sep-23 14:00N 58°42' W 066°06'7 6.8 360 / 191015.5 3.4 0.2
2017-Sep-23 13:00N 58°48' W 066°12'7 6.8 360 / 231013.0 2.8-0.0 5.1
2017-Sep-23 12:00N 58°54' W 066°18'7 6.8 360 / 221012.1 2.6-0.1 4.9
2017-Sep-23 11:00N 59°00' W 066°24'6 6.0 010 / 221011.4 1.9-0.4 4.2
2017-Sep-23 10:00N 58°54' W 066°24'9 9.3 350 / 221010.4 1.6-0.1 4.8
2017-Sep-23 09:00N 58°54' W 066°42'1212.4 360 / 191009.7 0.7-0.2 3.9
2017-Sep-23 08:00N 58°54' W 067°06'1515.5 360 / 191009.2 0.8 0.1 3.8
2017-Sep-23 07:00N 58°54' W 067°36'1111.1 010 / 121009.2 1.4 0.9 3.7
2017-Sep-23 06:00N 59°00' W 067°54'1716.6 360 / 121009.2 1.9 0.9 3.8
2017-Sep-23 05:00N 59°06' W 068°24'9 9.2 010 / 161009.2 2.4 1.0 4.3
2017-Sep-23 04:00N 59°06' W 068°42'1515.2 030 / 131009.6 3.0-0.2 4.6
2017-Sep-23 03:00N 58°54' W 069°00'9 9.3 040 / 121009.7 3.1 0.1 4.6
2017-Sep-23 02:00N 58°54' W 069°18'1111.1 080 / 121010.5 2.7 1.5 5.0
2017-Sep-23 01:00N 58°48' W 069°36'1111.1 080 / 141011.0 2.6 1.2 5.3
2017-Sep-23 00:00N 58°42' W 069°54'0 0.0 080 / 101011.8 2.8 1.8
2017-Sep-22 23:00N 58°42' W 069°54'0 0.0 070 / 141012.7 2.3 1.5
2017-Sep-22 22:00N 58°42' W 069°54'0 0.0 070 / 91013.4 2.8 2.0
2017-Sep-22 21:00N 58°42' W 069°54'0 0.0 060 / 91013.9 2.8 1.9
2017-Sep-22 20:00N 58°42' W 069°54'0 0.0 030 / 51014.6 4.1 1.8
2017-Sep-22 19:00N 58°42' W 069°54'0 0.0 010 / 81013.5 3.1 1.7
2017-Sep-22 18:00N 58°42' W 069°54'0 0.0 010 / 81014.5 3.5 1.8
2017-Sep-22 17:00N 58°42' W 069°54'0 0.0 010 / 61013.8 3.4 1.6
2017-Sep-22 16:00N 58°42' W 069°54'0 0.0 030 / 131012.5 3.2 1.6
2017-Sep-22 15:00N 58°42' W 069°54'0 0.0 010 / 161012.0 3.4 2.5
2017-Sep-22 14:00N 58°42' W 069°54'0 0.0 360 / 181012.2 3.5 3.2
2017-Sep-22 13:00N 58°42' W 069°54'0 0.0 010 / 191010.6 4.1 3.7
2017-Sep-22 12:00N 58°42' W 069°54'0 0.0 350 / 171010.2 4.2 3.8
2017-Sep-22 11:00N 58°42' W 069°54'0 0.0 350 / 161006.4 4.5 4.0
2017-Sep-22 10:00N 58°42' W 069°54'0 0.0 290 / 101006.2 7.9 6.0
2017-Sep-22 09:00N 58°42' W 069°54'0 0.0 270 / 81005.5 8.0 5.7
2017-Sep-22 08:00N 58°42' W 069°54'0 0.0 280 / 161006.5 8.5 5.8
2017-Sep-22 07:00N 58°42' W 069°54'0 0.0 250 / 121005.6 8.7 6.9
2017-Sep-22 06:00N 58°42' W 069°54'0 0.0 190 / 141003.8 8.1 6.8
2017-Sep-22 05:00N 58°42' W 069°54'0 0.0 180 / 101004.7 8.4 7.2
2017-Sep-22 04:00N 58°42' W 069°54'0 0.0 230 / 141007.1 9.4 7.9
2017-Sep-22 03:00N 58°42' W 069°54'0 0.0 220 / 61005.7 7.6 7.4
2017-Sep-22 02:00N 58°42' W 069°54'0 0.0 180 / 61007.9 6.9 6.8
2017-Sep-22 01:00N 58°42' W 069°54'0 0.0 120 / 101008.5 6.4 6.1
2017-Sep-22 00:00N 58°42' W 069°54'0 0.0 120 / 111008.4 6.5 5.7
2017-Sep-21 23:00N 58°42' W 069°54'0 0.0 090 / 101010.1 6.4 5.2
2017-Sep-21 22:00N 58°42' W 069°54'0 0.0 120 / 111011.8 6.7 5.1
2017-Sep-21 21:00N 58°42' W 069°54'0 0.0 110 / 121012.4 6.7 4.5 6.2
2017-Sep-21 20:00N 58°42' W 069°54'7 6.8 120 / 131014.4 6.8 4.3 6.1
2017-Sep-21 19:00N 58°48' W 069°48'0 0.0 120 / 121014.9 6.9 3.8
2017-Sep-21 18:00N 58°48' W 069°48'0 0.0 130 / 131016.6 6.0 3.1 5.7
2017-Sep-21 17:00N 58°48' W 069°48'0 0.0 120 / 131017.4 6.0 2.8
2017-Sep-21 16:00N 58°48' W 069°48'1413.8 120 / 161018.2 5.6 3.1 5.1
2017-Sep-21 15:00N 58°54' W 069°24'1515.5 150 / 131021.0 4.8 3.4 4.7
2017-Sep-21 14:00N 58°54' W 068°54'7 6.8 130 / 111023.2 2.6 2.4 4.5
2017-Sep-21 13:00N 59°00' W 068°48'0 0.0 140 / 91022.8 2.1 2.0 4.4
2017-Sep-21 12:00N 59°00' W 068°48'0 0.0 130 / 81023.6 1.6 1.5 4.6
2017-Sep-21 11:00N 59°00' W 068°48'7 6.7 150 / 31023.8 1.5 1.4 4.6
2017-Sep-21 10:00N 59°06' W 068°42'6 6.0 060 / 31023.7 1.5 1.4 4.4
2017-Sep-21 09:00N 59°12' W 068°42'0 0.0 350 / 11024.0 1.6 1.5 4.3
2017-Sep-21 08:00N 59°12' W 068°42'6 6.0 040 / 51023.9 1.3 1.2 4.3
2017-Sep-21 07:00N 59°18' W 068°42'6 6.0 020 / 71023.6 1.6 1.5 4.1
2017-Sep-21 06:00N 59°24' W 068°42'3 3.1 340 / 51022.8 1.8 1.7 4.2
2017-Sep-21 05:00N 59°24' W 068°48'3 3.1 330 / 81023.0 2.1 1.8 4.4
2017-Sep-21 04:00N 59°24' W 068°54'9 8.6 350 / 71021.8 2.5 2.0 4.2
2017-Sep-21 03:00N 59°30' W 069°06'3 3.0 330 / 81021.6 2.8 2.4 4.4
2017-Sep-21 02:00N 59°30' W 069°12'9 8.6
2017-Sep-21 01:00N 59°24' W 069°24'9 8.6 020 / 101021.0 3.5 3.2 4.7
2017-Sep-21 00:00N 59°18' W 069°36'0 0.0 010 / 61021.1 4.3 3.4
2017-Sep-20 23:00N 59°18' W 069°36'0 0.0 350 / 51020.8 4.3 3.4
2017-Sep-20 22:00N 59°18' W 069°36'0 0.0 020 / 91020.7 4.3 3.3
2017-Sep-20 21:00N 59°18' W 069°36'0 0.0 020 / 71020.4 4.5 3.3
2017-Sep-20 20:00N 59°18' W 069°36'0 0.0 010 / 111020.1 4.6 3.3
2017-Sep-20 18:00N 59°18' W 069°36'0 0.0 360 / 151017.8 3.9 3.0
2017-Sep-20 17:00N 59°18' W 069°36'0 0.0 350 / 161016.7 4.6 3.9
2017-Sep-20 16:00N 59°18' W 069°36'0 0.0 350 / 121015.8 4.3 3.9
2017-Sep-20 15:00N 59°18' W 069°36'0 0.0 350 / 141016.5 4.6 3.6
2017-Sep-20 14:00N 59°18' W 069°36'0 0.0 360 / 111015.6 4.3 3.8
2017-Sep-20 13:00N 59°18' W 069°36'0 0.0 350 / 161014.5 4.3 3.5
2017-Sep-20 12:00N 59°18' W 069°36'0 0.0 350 / 191013.3 4.0 3.6 4.9
2017-Sep-20 11:00N 59°18' W 069°36'9 8.6 350 / 161012.6 4.0 3.7 4.8
2017-Sep-20 10:00N 59°24' W 069°24'7 6.7 040 / 71010.8 4.0 3.9 4.7
2017-Sep-20 09:00N 59°30' W 069°18'6 6.1 360 / 101010.0 4.6 4.4 4.4
2017-Sep-20 08:00N 59°30' W 069°06'9 8.5 230 / 121009.7 5.7 5.6 4.4
2017-Sep-20 07:00N 59°36' W 068°54'6 6.0 220 / 131009.5 5.5 5.4 4.2
2017-Sep-20 06:00N 59°42' W 068°54'7 6.7 210 / 151009.1 5.4 5.2 4.2
2017-Sep-20 05:00N 59°48' W 069°00'6 6.0 200 / 101009.1 5.2 4.8 4.4
2017-Sep-20 04:00N 59°54' W 069°00'6 6.0 200 / 101008.8 5.4 5.3 4.5
2017-Sep-20 03:00N 59°54' W 069°12'6 6.0 180 / 111008.4 5.1 4.9 4.6
2017-Sep-20 02:00N 59°54' W 069°24'9 9.0 170 / 91008.3 5.8 5.5 4.9
2017-Sep-20 01:00N 59°54' W 069°42'9 9.0 180 / 41008.3 7.0 5.9 4.6
2017-Sep-20 00:00N 59°54' W 070°00'0 0.0 050 / 21008.7 7.2 6.2 5.6
2017-Sep-19 23:00N 59°54' W 070°00'0 0.0 1008.9 7.3 6.4
2017-Sep-19 22:00N 59°54' W 070°00'0 0.0 070 / 51009.3 6.7 6.1
2017-Sep-19 21:00N 59°54' W 070°00'0 0.0 060 / 81009.5 5.7 5.1
2017-Sep-19 20:00N 59°54' W 070°00'0 0.0 070 / 121009.3 5.6 4.6
2017-Sep-19 19:00N 59°54' W 070°00'0 0.0 070 / 101009.5 5.6 4.6
2017-Sep-19 18:00N 59°54' W 070°00'0 0.0 080 / 101009.9 5.3 4.0
2017-Sep-19 17:00N 59°54' W 070°00'0 0.0 090 / 41010.4 5.5 3.9
2017-Sep-19 16:00N 59°54' W 070°00'0 0.0 130 / 11010.6 5.6 3.5
2017-Sep-19 15:00N 59°54' W 070°00'0 0.0 220 / 11010.7 4.7 2.7
2017-Sep-19 14:00N 59°54' W 070°00'0 0.0 270 / 51011.0 4.3 3.3
2017-Sep-19 13:00N 59°54' W 070°00'0 0.0 270 / 71011.4 3.8 3.1
2017-Sep-19 12:00N 59°54' W 070°00'0 0.0 230 / 51011.6 3.7 2.9
2017-Sep-19 11:00N 59°54' W 070°00'0 0.0 060 / 61011.7 3.4 2.8
2017-Sep-19 10:00N 59°54' W 070°00'0 0.0 070 / 41012.6 3.7 2.6
2017-Sep-19 09:00N 59°54' W 070°00'0 0.0 050 / 91013.0 3.7 2.0
2017-Sep-19 08:00N 59°54' W 070°00'0 0.0 070 / 101013.9 3.5 1.7
2017-Sep-19 07:00N 59°54' W 070°00'0 0.0 070 / 111014.3 3.6 1.6
2017-Sep-19 06:00N 59°54' W 070°00'0 0.0 080 / 121014.7 3.6 1.5
2017-Sep-19 05:00N 59°54' W 070°00'0 0.0 080 / 131015.0 3.4 1.2
2017-Sep-19 04:00N 59°54' W 070°00'0 0.0 080 / 131015.8 5.4 1.6
2017-Sep-19 03:00N 59°54' W 070°00'0 0.0 080 / 151016.3 3.1 0.8
2017-Sep-19 02:00N 59°54' W 070°00'0 0.0 080 / 141017.0 2.8 0.9
2017-Sep-19 01:00N 59°54' W 070°00'0 0.0 080 / 141017.9 2.4 1.0
2017-Sep-19 00:00N 59°54' W 070°00'0 0.0 100 / 111018.9 2.2 0.8
2017-Sep-18 23:00N 59°54' W 070°00'0 0.0 100 / 151019.2 2.2 0.7
2017-Sep-18 22:00N 59°54' W 070°00'0 0.0 100 / 171019.8 2.5 0.8
2017-Sep-18 21:00N 59°54' W 070°00'0 0.0 100 / 161020.7 3.0 0.7
2017-Sep-18 20:00N 59°54' W 070°00'0 0.0 100 / 141021.5 4.7-0.4
2017-Sep-18 19:00N 59°54' W 070°00'0 0.0 110 / 131022.1 5.7-1.4
2017-Sep-18 18:00N 59°54' W 070°00'0 0.0 110 / 131022.6 5.8-0.7
2017-Sep-18 17:00N 59°54' W 070°00'0 0.0 120 / 121023.0 5.9 0.1
2017-Sep-18 16:00N 59°54' W 070°00'0 0.0 130 / 101023.4 6.2-0.2
2017-Sep-18 15:00N 59°54' W 070°00'0 0.0 060 / 41024.2 6.2 2.9
2017-Sep-18 14:00N 59°54' W 070°00'0 0.0 030 / 11024.8 5.1 2.5
2017-Sep-18 13:00N 59°54' W 070°00'6 6.0 230 / 11024.8 3.6 1.8 5.2
2017-Sep-18 12:00N 59°54' W 069°48'8 8.5 220 / 41024.9 2.3 1.0 4.3
2017-Sep-18 11:00N 60°00' W 069°36'8 8.5 220 / 51025.2 2.8 1.3 4.3
2017-Sep-18 10:00N 60°06' W 069°24'9 9.0 230 / 101025.4 3.0 1.4 4.3
2017-Sep-18 09:00N 60°06' W 069°06'8 8.5 260 / 71025.4 3.4 1.3 4.1
2017-Sep-18 08:00N 60°12' W 068°54'6 6.0 250 / 71025.5 3.4 1.3 4.2
2017-Sep-18 07:00N 60°18' W 068°54'1212.0 260 / 81025.9 3.6 1.4 4.2
2017-Sep-18 06:00N 60°30' W 068°54'6 6.0 250 / 101025.9 3.3 1.2 4.3
2017-Sep-18 05:00N 60°36' W 068°54'6 6.0 270 / 81025.7 3.1 0.6 4.3
2017-Sep-18 04:00N 60°42' W 068°54'6 6.0 320 / 101025.5 3.3 1.0 4.2
2017-Sep-18 03:00N 60°48' W 068°54'7 6.7 340 / 101025.2 3.4 1.0 4.3
2017-Sep-18 02:00N 60°54' W 069°00'8 8.4 310 / 161025.0 2.9 0.6 4.5
2017-Sep-18 01:00N 61°00' W 069°12'1110.6 310 / 121024.3 3.1 0.6 4.4
2017-Sep-18 00:00N 61°06' W 069°30'6 5.8 300 / 131024.3 1.9 0.6 4.5
2017-Sep-17 23:00N 61°06' W 069°42'0 0.0 330 / 141024.1 2.9 0.8
2017-Sep-17 22:00N 61°06' W 069°42'0 0.0 310 / 91024.1 3.6 1.4
2017-Sep-17 21:00N 61°06' W 069°42'0 0.0 320 / 111023.7 3.8 0.9
2017-Sep-17 20:00N 61°06' W 069°42'0 0.0 320 / 161023.5 3.3 0.8
2017-Sep-17 19:00N 61°06' W 069°42'0 0.0 320 / 181023.2 2.9 1.1
2017-Sep-17 17:00N 61°06' W 069°42'0 0.0 320 / 221022.2 3.2 1.5
2017-Sep-17 16:00N 61°06' W 069°42'0 0.0 330 / 201021.9 3.4 1.0
2017-Sep-17 15:00N 61°06' W 069°42'0 0.0 320 / 201021.2 3.1 1.1
2017-Sep-17 14:00N 61°06' W 069°42'0 0.0 330 / 211020.6 2.8 0.6
2017-Sep-17 13:00N 61°06' W 069°42'0 0.0 320 / 241019.8 2.3 0.5
2017-Sep-17 12:00N 61°06' W 069°42'0 0.0 320 / 241019.0 3.0 1.3 4.5
2017-Sep-17 11:00N 61°06' W 069°42'0 0.0 320 / 231018.5 2.9 1.0 4.5
2017-Sep-17 10:00N 61°06' W 069°42'6 5.8 300 / 221018.5 2.7-0.3 4.6
2017-Sep-17 09:00N 61°06' W 069°54'8 8.3 320 / 161018.0 3.3 0.5 4.3
2017-Sep-17 08:00N 61°12' W 070°06'8 8.3 320 / 211017.8 2.5 1.3 4.0
2017-Sep-17 07:00N 61°18' W 070°18'8 8.3 290 / 81017.5 4.4 2.7 4.3
2017-Sep-17 06:00N 61°24' W 070°30'8 8.3 230 / 71017.5 4.1 2.4 4.5
2017-Sep-17 05:00N 61°30' W 070°42'8 8.3 220 / 81017.9 3.6 2.6 4.6
2017-Sep-17 04:00N 61°36' W 070°54'1010.4 230 / 101018.0 3.7 2.5 4.8
2017-Sep-17 03:00N 61°42' W 071°12'6 5.7 250 / 81018.3 3.9 2.4 5.0
2017-Sep-17 02:00N 61°42' W 071°24'9 8.5 260 / 61018.4 3.9 2.6 5.3
2017-Sep-17 01:00N 61°42' W 071°42'6 5.7 250 / 41018.6 3.7 2.5 5.2
2017-Sep-17 00:00N 61°42' W 071°54'6 6.0 320 / 91018.4 3.8 2.4 5.2
2017-Sep-16 23:00N 61°36' W 071°54'0 0.0 280 / 161017.9 6.4 0.2 5.3
2017-Sep-16 22:00N 61°36' W 071°54'0 0.0 010 / 111017.9 4.9 2.4
2017-Sep-16 21:00N 61°36' W 071°54'0 0.0 290 / 181017.9 7.0-0.0
2017-Sep-16 20:00N 61°36' W 071°54'0 0.0 290 / 141018.0 6.8-0.4
2017-Sep-16 19:00N 61°36' W 071°54'0 0.0 290 / 181018.0 6.6-0.4
2017-Sep-16 18:00N 61°36' W 071°54'0 0.0 010 / 111018.2 5.2 0.9
2017-Sep-16 17:00N 61°36' W 071°54'0 0.0 020 / 141018.1 4.5 0.6
2017-Sep-16 16:00N 61°36' W 071°54'0 0.0 020 / 151017.9 3.9 0.5
2017-Sep-16 15:00N 61°36' W 071°54'0 0.0 340 / 131018.0 4.9-1.4
2017-Sep-16 14:00N 61°36' W 071°54'0 0.0 320 / 161019.2 4.5-2.9
2017-Sep-16 13:00N 61°36' W 071°54'0 0.0 320 / 141017.6 4.0-2.0
2017-Sep-16 12:00N 61°36' W 071°54'0 0.0 300 / 101017.3 3.5-2.5
2017-Sep-16 11:00N 61°36' W 071°54'0 0.0 280 / 51015.7 3.0-2.6
2017-Sep-16 10:00N 61°36' W 071°54'0 0.0 280 / 91015.3 3.0-2.3
2017-Sep-16 09:00N 61°36' W 071°54'0 0.0 310 / 61015.3 3.0-2.2
2017-Sep-16 08:00N 61°36' W 071°54'0 0.0 300 / 101014.8 3.4-1.7
2017-Sep-16 07:00N 61°36' W 071°54'0 0.0 280 / 71014.4 3.0-1.7
2017-Sep-16 06:00N 61°36' W 071°54'0 0.0 290 / 41014.5 3.3-1.9
2017-Sep-16 05:00N 61°36' W 071°54'0 0.0 280 / 91014.6 3.5-2.2
2017-Sep-16 04:00N 61°36' W 071°54'0 0.0 310 / 51014.4 3.8-2.5
2017-Sep-16 03:00N 61°36' W 071°54'0 0.0 280 / 111014.3 3.8-2.2
2017-Sep-16 02:00N 61°36' W 071°54'0 0.0 270 / 91014.2 4.0-2.7
2017-Sep-16 01:00N 61°36' W 071°54'0 0.0 270 / 101012.3 4.2-2.1
2017-Sep-16 00:00N 61°36' W 071°54'0 0.0 280 / 141012.8 4.8-0.5
2017-Sep-15 23:00N 61°36' W 071°54'0 0.0 350 / 81012.4 4.8 0.2
2017-Sep-15 22:00N 61°36' W 071°54'0 0.0 030 / 171012.2 4.9 0.7
2017-Sep-15 21:00N 61°36' W 071°54'0 0.0 030 / 171012.4 4.2 1.4
2017-Sep-15 20:00N 61°36' W 071°54'0 0.0 030 / 191010.6 4.0 1.3
2017-Sep-15 19:00N 61°36' W 071°54'0 0.0 020 / 211010.2 3.9 1.3
2017-Sep-15 18:00N 61°36' W 071°54'0 0.0 020 / 191009.8 3.7 1.0
2017-Sep-15 17:00N 61°36' W 071°54'0 0.0 020 / 151009.9 3.9 1.2
2017-Sep-15 16:00N 61°36' W 071°54'0 0.0 340 / 121012.0 4.8 1.0
2017-Sep-15 15:00N 61°36' W 071°54'0 0.0 360 / 141009.6 4.4 1.5
2017-Sep-15 14:00N 61°36' W 071°54'0 0.0 010 / 131008.7 4.1 2.3
2017-Sep-15 13:00N 61°36' W 071°54'0 0.0 010 / 161008.1 4.7 2.7
2017-Sep-15 12:00N 61°36' W 071°54'0 0.0 020 / 141009.0 5.2 3.5
2017-Sep-15 11:00N 61°36' W 071°54'   360 / 61008.0 5.4 4.1
Track history (hours):
 
Tides and Currents Weather Stations Pressure Air Temp Water Temp Dewpoint Dewpoint Depression Visibility Wind Speed Wind Dir Waves Ship Positions

Oceanographic research ship CCGS Amundsen (Canada)

Detailed information on ship capabilities available from ARCUS's ALIAS (Arctic Logistics Information and Support) project.

Last reported at 2017-Sep-25 11:00 UTC. Time now 2017-Sep-25 11:52 UTC.
Position N 58°42' W 066°06'.

Length 98.3 m; beam 19.5 m; draft 7.3 m.

Type: SAR. MMSI: 316050000.

Wind from 300 at 6 knots

Barometer 1018.5 mb
Air temperature 1.7 ° C
Dewpoint -1.7 ° C

Date/timePositionNaut miles runAvg speedWind from/ knotsBaromVisibWave heightAir tempDewpointWater temp
2017-Sep-25 11:00N 58°42' W 066°06'0 0.0 300 / 61018.5 1.7-1.7
2017-Sep-25 10:00N 58°42' W 066°06'0 0.0 330 / 11018.2 2.0-1.9
2017-Sep-25 09:00N 58°42' W 066°06'0 0.0 320 / 51017.7 2.1-2.9
2017-Sep-25 08:00N 58°42' W 066°06'0 0.0 1017.4 1.8-2.5
2017-Sep-25 07:00N 58°42' W 066°06'0 0.0 300 / 121016.5 1.4-2.1 5.5
2017-Sep-25 06:00N 58°42' W 066°06'0 0.0 310 / 111016.1 1.6-2.7 5.6
2017-Sep-25 05:00N 58°42' W 066°06'0 0.0 340 / 171015.6 1.7-3.0
2017-Sep-25 04:00N 58°42' W 066°06'0 0.0 340 / 181015.3 1.9-1.8
2017-Sep-25 03:00N 58°42' W 066°06'0 0.0 330 / 211014.7 2.3-0.6
2017-Sep-25 02:00N 58°42' W 066°06'0 0.0 270 / 121014.5 3.2 0.2
2017-Sep-25 01:00N 58°42' W 066°06'0 0.0 240 / 121015.1 2.6-0.1
2017-Sep-25 00:00N 58°42' W 066°06'0 0.0 230 / 81015.8 2.2-0.2
2017-Sep-24 23:00N 58°42' W 066°06'0 0.0 240 / 61016.3 2.4-0.4
2017-Sep-24 22:00N 58°42' W 066°06'0 0.0 330 / 11016.4 3.1-1.2
2017-Sep-24 21:00N 58°42' W 066°06'0 0.0 340 / 21016.4 3.4-1.7
2017-Sep-24 20:00N 58°42' W 066°06'0 0.0 330 / 11015.9 3.2-2.4
2017-Sep-24 19:00N 58°42' W 066°06'0 0.0 310 / 141015.3 3.1-2.2
2017-Sep-24 18:00N 58°42' W 066°06'0 0.0 320 / 171015.1 2.4-1.2
2017-Sep-24 17:00N 58°42' W 066°06'0 0.0 320 / 161014.6 2.2-1.2
2017-Sep-24 16:00N 58°42' W 066°06'0 0.0 340 / 141014.1 2.0-0.5
2017-Sep-24 15:00N 58°42' W 066°06'0 0.0 340 / 141013.7 2.1-0.2
2017-Sep-24 14:00N 58°42' W 066°06'0 0.0 340 / 141013.8 2.5 0.5
2017-Sep-24 13:00N 58°42' W 066°06'0 0.0 300 / 121013.7 3.9 1.5
2017-Sep-24 12:00N 58°42' W 066°06'0 0.0 260 / 141014.1 2.9 1.1
2017-Sep-24 11:00N 58°42' W 066°06'0 0.0 240 / 151014.6 2.9 0.6
2017-Sep-24 10:00N 58°42' W 066°06'6 6.2 230 / 111015.0 2.8 0.5
2017-Sep-24 09:00N 58°42' W 065°54'0 0.0 150 / 121015.2 2.7-0.1
2017-Sep-24 08:00N 58°42' W 065°54'0 0.0 160 / 151015.2 2.1-0.5
2017-Sep-24 07:00N 58°42' W 065°54'0 0.0 150 / 141015.6 1.8-1.0
2017-Sep-24 06:00N 58°42' W 065°54'0 0.0 160 / 141016.3 1.6-0.6
2017-Sep-24 05:00N 58°42' W 065°54'0 0.0 170 / 101016.7 1.7-0.1
2017-Sep-24 04:00N 58°42' W 065°54'0 0.0 180 / 61017.3 1.2-0.7
2017-Sep-24 03:00N 58°42' W 065°54'0 0.0 220 / 41017.8 0.8-0.3
2017-Sep-24 02:00N 58°42' W 065°54'0 0.0 250 / 51018.2 0.8-0.7
2017-Sep-24 01:00N 58°42' W 065°54'0 0.0 230 / 41018.7 1.0-0.8
2017-Sep-24 00:00N 58°42' W 065°54'0 0.0 270 / 51019.3 1.6-0.5
2017-Sep-23 23:00N 58°42' W 065°54'0 0.0 290 / 41020.0 2.2-0.3
2017-Sep-23 22:00N 58°42' W 065°54'0 0.0 320 / 11019.9 3.2 0.5
2017-Sep-23 21:00N 58°42' W 065°54'0 0.0 320 / 31019.7 4.0 0.7
2017-Sep-23 19:00N 58°42' W 065°54'0 0.0 310 / 71017.8 4.5 1.3 6.4
2017-Sep-23 18:00N 58°42' W 065°54'0 0.0 070 / 11016.7 5.0 0.8 6.3
2017-Sep-23 17:00N 58°42' W 065°54'6 6.2 340 / 121016.0 4.5-2.2 5.9
2017-Sep-23 16:00N 58°42' W 066°06'0 0.0 350 / 171015.5 3.1-0.6
2017-Sep-23 15:00N 58°42' W 066°06'0 0.0 360 / 191016.6 3.3-0.6
2017-Sep-23 14:00N 58°42' W 066°06'7 6.8 360 / 191015.5 3.4 0.2
2017-Sep-23 13:00N 58°48' W 066°12'7 6.8 360 / 231013.0 2.8-0.0 5.1
2017-Sep-23 12:00N 58°54' W 066°18'7 6.8 360 / 221012.1 2.6-0.1 4.9
2017-Sep-23 11:00N 59°00' W 066°24'6 6.0 010 / 221011.4 1.9-0.4 4.2
2017-Sep-23 10:00N 58°54' W 066°24'9 9.3 350 / 221010.4 1.6-0.1 4.8
2017-Sep-23 09:00N 58°54' W 066°42'1212.4 360 / 191009.7 0.7-0.2 3.9
2017-Sep-23 08:00N 58°54' W 067°06'1515.5 360 / 191009.2 0.8 0.1 3.8
2017-Sep-23 07:00N 58°54' W 067°36'1111.1 010 / 121009.2 1.4 0.9 3.7
2017-Sep-23 06:00N 59°00' W 067°54'1716.6 360 / 121009.2 1.9 0.9 3.8
2017-Sep-23 05:00N 59°06' W 068°24'9 9.2 010 / 161009.2 2.4 1.0 4.3
2017-Sep-23 04:00N 59°06' W 068°42'1515.2 030 / 131009.6 3.0-0.2 4.6
2017-Sep-23 03:00N 58°54' W 069°00'9 9.3 040 / 121009.7 3.1 0.1 4.6
2017-Sep-23 02:00N 58°54' W 069°18'1111.1 080 / 121010.5 2.7 1.5 5.0
2017-Sep-23 01:00N 58°48' W 069°36'1111.1 080 / 141011.0 2.6 1.2 5.3
2017-Sep-23 00:00N 58°42' W 069°54'0 0.0 080 / 101011.8 2.8 1.8
2017-Sep-22 23:00N 58°42' W 069°54'0 0.0 070 / 141012.7 2.3 1.5
2017-Sep-22 22:00N 58°42' W 069°54'0 0.0 070 / 91013.4 2.8 2.0
2017-Sep-22 21:00N 58°42' W 069°54'0 0.0 060 / 91013.9 2.8 1.9
2017-Sep-22 20:00N 58°42' W 069°54'0 0.0 030 / 51014.6 4.1 1.8
2017-Sep-22 19:00N 58°42' W 069°54'0 0.0 010 / 81013.5 3.1 1.7
2017-Sep-22 18:00N 58°42' W 069°54'0 0.0 010 / 81014.5 3.5 1.8
2017-Sep-22 17:00N 58°42' W 069°54'0 0.0 010 / 61013.8 3.4 1.6
2017-Sep-22 16:00N 58°42' W 069°54'0 0.0 030 / 131012.5 3.2 1.6
2017-Sep-22 15:00N 58°42' W 069°54'0 0.0 010 / 161012.0 3.4 2.5
2017-Sep-22 14:00N 58°42' W 069°54'0 0.0 360 / 181012.2 3.5 3.2
2017-Sep-22 13:00N 58°42' W 069°54'0 0.0 010 / 191010.6 4.1 3.7
2017-Sep-22 12:00N 58°42' W 069°54'0 0.0 350 / 171010.2 4.2 3.8
2017-Sep-22 11:00N 58°42' W 069°54'0 0.0 350 / 161006.4 4.5 4.0
2017-Sep-22 10:00N 58°42' W 069°54'0 0.0 290 / 101006.2 7.9 6.0
2017-Sep-22 09:00N 58°42' W 069°54'0 0.0 270 / 81005.5 8.0 5.7
2017-Sep-22 08:00N 58°42' W 069°54'0 0.0 280 / 161006.5 8.5 5.8
2017-Sep-22 07:00N 58°42' W 069°54'0 0.0 250 / 121005.6 8.7 6.9
2017-Sep-22 06:00N 58°42' W 069°54'0 0.0 190 / 141003.8 8.1 6.8
2017-Sep-22 05:00N 58°42' W 069°54'0 0.0 180 / 101004.7 8.4 7.2
2017-Sep-22 04:00N 58°42' W 069°54'0 0.0 230 / 141007.1 9.4 7.9
2017-Sep-22 03:00N 58°42' W 069°54'0 0.0 220 / 61005.7 7.6 7.4
2017-Sep-22 02:00N 58°42' W 069°54'0 0.0 180 / 61007.9 6.9 6.8
2017-Sep-22 01:00N 58°42' W 069°54'0 0.0 120 / 101008.5 6.4 6.1
2017-Sep-22 00:00N 58°42' W 069°54'0 0.0 120 / 111008.4 6.5 5.7
2017-Sep-21 23:00N 58°42' W 069°54'0 0.0 090 / 101010.1 6.4 5.2
2017-Sep-21 22:00N 58°42' W 069°54'0 0.0 120 / 111011.8 6.7 5.1
2017-Sep-21 21:00N 58°42' W 069°54'0 0.0 110 / 121012.4 6.7 4.5 6.2
2017-Sep-21 20:00N 58°42' W 069°54'7 6.8 120 / 131014.4 6.8 4.3 6.1
2017-Sep-21 19:00N 58°48' W 069°48'0 0.0 120 / 121014.9 6.9 3.8
2017-Sep-21 18:00N 58°48' W 069°48'0 0.0 130 / 131016.6 6.0 3.1 5.7
2017-Sep-21 17:00N 58°48' W 069°48'0 0.0 120 / 131017.4 6.0 2.8
2017-Sep-21 16:00N 58°48' W 069°48'1413.8 120 / 161018.2 5.6 3.1 5.1
2017-Sep-21 15:00N 58°54' W 069°24'1515.5 150 / 131021.0 4.8 3.4 4.7
2017-Sep-21 14:00N 58°54' W 068°54'7 6.8 130 / 111023.2 2.6 2.4 4.5
2017-Sep-21 13:00N 59°00' W 068°48'0 0.0 140 / 91022.8 2.1 2.0 4.4
2017-Sep-21 12:00N 59°00' W 068°48'0 0.0 130 / 81023.6 1.6 1.5 4.6
2017-Sep-21 11:00N 59°00' W 068°48'7 6.7 150 / 31023.8 1.5 1.4 4.6
2017-Sep-21 10:00N 59°06' W 068°42'6 6.0 060 / 31023.7 1.5 1.4 4.4
2017-Sep-21 09:00N 59°12' W 068°42'0 0.0 350 / 11024.0 1.6 1.5 4.3
2017-Sep-21 08:00N 59°12' W 068°42'6 6.0 040 / 51023.9 1.3 1.2 4.3
2017-Sep-21 07:00N 59°18' W 068°42'6 6.0 020 / 71023.6 1.6 1.5 4.1
2017-Sep-21 06:00N 59°24' W 068°42'3 3.1 340 / 51022.8 1.8 1.7 4.2
2017-Sep-21 05:00N 59°24' W 068°48'3 3.1 330 / 81023.0 2.1 1.8 4.4
2017-Sep-21 04:00N 59°24' W 068°54'9 8.6 350 / 71021.8 2.5 2.0 4.2
2017-Sep-21 03:00N 59°30' W 069°06'3 3.0 330 / 81021.6 2.8 2.4 4.4
2017-Sep-21 02:00N 59°30' W 069°12'9 8.6
2017-Sep-21 01:00N 59°24' W 069°24'9 8.6 020 / 101021.0 3.5 3.2 4.7
2017-Sep-21 00:00N 59°18' W 069°36'0 0.0 010 / 61021.1 4.3 3.4
2017-Sep-20 23:00N 59°18' W 069°36'0 0.0 350 / 51020.8 4.3 3.4
2017-Sep-20 22:00N 59°18' W 069°36'0 0.0 020 / 91020.7 4.3 3.3
2017-Sep-20 21:00N 59°18' W 069°36'0 0.0 020 / 71020.4 4.5 3.3
2017-Sep-20 20:00N 59°18' W 069°36'0 0.0 010 / 111020.1 4.6 3.3
2017-Sep-20 18:00N 59°18' W 069°36'0 0.0 360 / 151017.8 3.9 3.0
2017-Sep-20 17:00N 59°18' W 069°36'0 0.0 350 / 161016.7 4.6 3.9
2017-Sep-20 16:00N 59°18' W 069°36'0 0.0 350 / 121015.8 4.3 3.9
2017-Sep-20 15:00N 59°18' W 069°36'0 0.0 350 / 141016.5 4.6 3.6
2017-Sep-20 14:00N 59°18' W 069°36'0 0.0 360 / 111015.6 4.3 3.8
2017-Sep-20 13:00N 59°18' W 069°36'0 0.0 350 / 161014.5 4.3 3.5
2017-Sep-20 12:00N 59°18' W 069°36'0 0.0 350 / 191013.3 4.0 3.6 4.9
2017-Sep-20 11:00N 59°18' W 069°36'9 8.6 350 / 161012.6 4.0 3.7 4.8
2017-Sep-20 10:00N 59°24' W 069°24'7 6.7 040 / 71010.8 4.0 3.9 4.7
2017-Sep-20 09:00N 59°30' W 069°18'6 6.1 360 / 101010.0 4.6 4.4 4.4
2017-Sep-20 08:00N 59°30' W 069°06'9 8.5 230 / 121009.7 5.7 5.6 4.4
2017-Sep-20 07:00N 59°36' W 068°54'6 6.0 220 / 131009.5 5.5 5.4 4.2
2017-Sep-20 06:00N 59°42' W 068°54'7 6.7 210 / 151009.1 5.4 5.2 4.2
2017-Sep-20 05:00N 59°48' W 069°00'6 6.0 200 / 101009.1 5.2 4.8 4.4
2017-Sep-20 04:00N 59°54' W 069°00'6 6.0 200 / 101008.8 5.4 5.3 4.5
2017-Sep-20 03:00N 59°54' W 069°12'6 6.0 180 / 111008.4 5.1 4.9 4.6
2017-Sep-20 02:00N 59°54' W 069°24'9 9.0 170 / 91008.3 5.8 5.5 4.9
2017-Sep-20 01:00N 59°54' W 069°42'9 9.0 180 / 41008.3 7.0 5.9 4.6
2017-Sep-20 00:00N 59°54' W 070°00'0 0.0 050 / 21008.7 7.2 6.2 5.6
2017-Sep-19 23:00N 59°54' W 070°00'0 0.0 1008.9 7.3 6.4
2017-Sep-19 22:00N 59°54' W 070°00'0 0.0 070 / 51009.3 6.7 6.1
2017-Sep-19 21:00N 59°54' W 070°00'0 0.0 060 / 81009.5 5.7 5.1
2017-Sep-19 20:00N 59°54' W 070°00'0 0.0 070 / 121009.3 5.6 4.6
2017-Sep-19 19:00N 59°54' W 070°00'0 0.0 070 / 101009.5 5.6 4.6
2017-Sep-19 18:00N 59°54' W 070°00'0 0.0 080 / 101009.9 5.3 4.0
2017-Sep-19 17:00N 59°54' W 070°00'0 0.0 090 / 41010.4 5.5 3.9
2017-Sep-19 16:00N 59°54' W 070°00'0 0.0 130 / 11010.6 5.6 3.5
2017-Sep-19 15:00N 59°54' W 070°00'0 0.0 220 / 11010.7 4.7 2.7
2017-Sep-19 14:00N 59°54' W 070°00'0 0.0 270 / 51011.0 4.3 3.3
2017-Sep-19 13:00N 59°54' W 070°00'0 0.0 270 / 71011.4 3.8 3.1
2017-Sep-19 12:00N 59°54' W 070°00'0 0.0 230 / 51011.6 3.7 2.9
2017-Sep-19 11:00N 59°54' W 070°00'0 0.0 060 / 61011.7 3.4 2.8
2017-Sep-19 10:00N 59°54' W 070°00'0 0.0 070 / 41012.6 3.7 2.6
2017-Sep-19 09:00N 59°54' W 070°00'0 0.0 050 / 91013.0 3.7 2.0
2017-Sep-19 08:00N 59°54' W 070°00'0 0.0 070 / 101013.9 3.5 1.7
2017-Sep-19 07:00N 59°54' W 070°00'0 0.0 070 / 111014.3 3.6 1.6
2017-Sep-19 06:00N 59°54' W 070°00'0 0.0 080 / 121014.7 3.6 1.5
2017-Sep-19 05:00N 59°54' W 070°00'0 0.0 080 / 131015.0 3.4 1.2
2017-Sep-19 04:00N 59°54' W 070°00'0 0.0 080 / 131015.8 5.4 1.6
2017-Sep-19 03:00N 59°54' W 070°00'0 0.0 080 / 151016.3 3.1 0.8
2017-Sep-19 02:00N 59°54' W 070°00'0 0.0 080 / 141017.0 2.8 0.9
2017-Sep-19 01:00N 59°54' W 070°00'0 0.0 080 / 141017.9 2.4 1.0
2017-Sep-19 00:00N 59°54' W 070°00'0 0.0 100 / 111018.9 2.2 0.8
2017-Sep-18 23:00N 59°54' W 070°00'0 0.0 100 / 151019.2 2.2 0.7
2017-Sep-18 22:00N 59°54' W 070°00'0 0.0 100 / 171019.8 2.5 0.8
2017-Sep-18 21:00N 59°54' W 070°00'0 0.0 100 / 161020.7 3.0 0.7
2017-Sep-18 20:00N 59°54' W 070°00'0 0.0 100 / 141021.5 4.7-0.4
2017-Sep-18 19:00N 59°54' W 070°00'0 0.0 110 / 131022.1 5.7-1.4
2017-Sep-18 18:00N 59°54' W 070°00'0 0.0 110 / 131022.6 5.8-0.7
2017-Sep-18 17:00N 59°54' W 070°00'0 0.0 120 / 121023.0 5.9 0.1
2017-Sep-18 16:00N 59°54' W 070°00'0 0.0 130 / 101023.4 6.2-0.2
2017-Sep-18 15:00N 59°54' W 070°00'0 0.0 060 / 41024.2 6.2 2.9
2017-Sep-18 14:00N 59°54' W 070°00'0 0.0 030 / 11024.8 5.1 2.5
2017-Sep-18 13:00N 59°54' W 070°00'6 6.0 230 / 11024.8 3.6 1.8 5.2
2017-Sep-18 12:00N 59°54' W 069°48'8 8.5 220 / 41024.9 2.3 1.0 4.3
2017-Sep-18 11:00N 60°00' W 069°36'8 8.5 220 / 51025.2 2.8 1.3 4.3
2017-Sep-18 10:00N 60°06' W 069°24'9 9.0 230 / 101025.4 3.0 1.4 4.3
2017-Sep-18 09:00N 60°06' W 069°06'8 8.5 260 / 71025.4 3.4 1.3 4.1
2017-Sep-18 08:00N 60°12' W 068°54'6 6.0 250 / 71025.5 3.4 1.3 4.2
2017-Sep-18 07:00N 60°18' W 068°54'1212.0 260 / 81025.9 3.6 1.4 4.2
2017-Sep-18 06:00N 60°30' W 068°54'6 6.0 250 / 101025.9 3.3 1.2 4.3
2017-Sep-18 05:00N 60°36' W 068°54'6 6.0 270 / 81025.7 3.1 0.6 4.3
2017-Sep-18 04:00N 60°42' W 068°54'6 6.0 320 / 101025.5 3.3 1.0 4.2
2017-Sep-18 03:00N 60°48' W 068°54'7 6.7 340 / 101025.2 3.4 1.0 4.3
2017-Sep-18 02:00N 60°54' W 069°00'8 8.4 310 / 161025.0 2.9 0.6 4.5
2017-Sep-18 01:00N 61°00' W 069°12'1110.6 310 / 121024.3 3.1 0.6 4.4
2017-Sep-18 00:00N 61°06' W 069°30'6 5.8 300 / 131024.3 1.9 0.6 4.5
2017-Sep-17 23:00N 61°06' W 069°42'0 0.0 330 / 141024.1 2.9 0.8
2017-Sep-17 22:00N 61°06' W 069°42'0 0.0 310 / 91024.1 3.6 1.4
2017-Sep-17 21:00N 61°06' W 069°42'0 0.0 320 / 111023.7 3.8 0.9
2017-Sep-17 20:00N 61°06' W 069°42'0 0.0 320 / 161023.5 3.3 0.8
2017-Sep-17 19:00N 61°06' W 069°42'0 0.0 320 / 181023.2 2.9 1.1
2017-Sep-17 17:00N 61°06' W 069°42'0 0.0 320 / 221022.2 3.2 1.5
2017-Sep-17 16:00N 61°06' W 069°42'0 0.0 330 / 201021.9 3.4 1.0
2017-Sep-17 15:00N 61°06' W 069°42'0 0.0 320 / 201021.2 3.1 1.1
2017-Sep-17 14:00N 61°06' W 069°42'0 0.0 330 / 211020.6 2.8 0.6
2017-Sep-17 13:00N 61°06' W 069°42'0 0.0 320 / 241019.8 2.3 0.5
2017-Sep-17 12:00N 61°06' W 069°42'0 0.0 320 / 241019.0 3.0 1.3 4.5
2017-Sep-17 11:00N 61°06' W 069°42'0 0.0 320 / 231018.5 2.9 1.0 4.5
2017-Sep-17 10:00N 61°06' W 069°42'6 5.8 300 / 221018.5 2.7-0.3 4.6
2017-Sep-17 09:00N 61°06' W 069°54'8 8.3 320 / 161018.0 3.3 0.5 4.3
2017-Sep-17 08:00N 61°12' W 070°06'8 8.3 320 / 211017.8 2.5 1.3 4.0
2017-Sep-17 07:00N 61°18' W 070°18'8 8.3 290 / 81017.5 4.4 2.7 4.3
2017-Sep-17 06:00N 61°24' W 070°30'8 8.3 230 / 71017.5 4.1 2.4 4.5
2017-Sep-17 05:00N 61°30' W 070°42'8 8.3 220 / 81017.9 3.6 2.6 4.6
2017-Sep-17 04:00N 61°36' W 070°54'1010.4 230 / 101018.0 3.7 2.5 4.8
2017-Sep-17 03:00N 61°42' W 071°12'6 5.7 250 / 81018.3 3.9 2.4 5.0
2017-Sep-17 02:00N 61°42' W 071°24'9 8.5 260 / 61018.4 3.9 2.6 5.3
2017-Sep-17 01:00N 61°42' W 071°42'6 5.7 250 / 41018.6 3.7 2.5 5.2
2017-Sep-17 00:00N 61°42' W 071°54'6 6.0 320 / 91018.4 3.8 2.4 5.2
2017-Sep-16 23:00N 61°36' W 071°54'0 0.0 280 / 161017.9 6.4 0.2 5.3
2017-Sep-16 22:00N 61°36' W 071°54'0 0.0 010 / 111017.9 4.9 2.4
2017-Sep-16 21:00N 61°36' W 071°54'0 0.0 290 / 181017.9 7.0-0.0
2017-Sep-16 20:00N 61°36' W 071°54'0 0.0 290 / 141018.0 6.8-0.4
2017-Sep-16 19:00N 61°36' W 071°54'0 0.0 290 / 181018.0 6.6-0.4
2017-Sep-16 18:00N 61°36' W 071°54'0 0.0 010 / 111018.2 5.2 0.9
2017-Sep-16 17:00N 61°36' W 071°54'0 0.0 020 / 141018.1 4.5 0.6
2017-Sep-16 16:00N 61°36' W 071°54'0 0.0 020 / 151017.9 3.9 0.5
2017-Sep-16 15:00N 61°36' W 071°54'0 0.0 340 / 131018.0 4.9-1.4
2017-Sep-16 14:00N 61°36' W 071°54'0 0.0 320 / 161019.2 4.5-2.9
2017-Sep-16 13:00N 61°36' W 071°54'0 0.0 320 / 141017.6 4.0-2.0
2017-Sep-16 12:00N 61°36' W 071°54'0 0.0 300 / 101017.3 3.5-2.5
2017-Sep-16 11:00N 61°36' W 071°54'0 0.0 280 / 51015.7 3.0-2.6
2017-Sep-16 10:00N 61°36' W 071°54'0 0.0 280 / 91015.3 3.0-2.3
2017-Sep-16 09:00N 61°36' W 071°54'0 0.0 310 / 61015.3 3.0-2.2
2017-Sep-16 08:00N 61°36' W 071°54'0 0.0 300 / 101014.8 3.4-1.7
2017-Sep-16 07:00N 61°36' W 071°54'0 0.0 280 / 71014.4 3.0-1.7
2017-Sep-16 06:00N 61°36' W 071°54'0 0.0 290 / 41014.5 3.3-1.9
2017-Sep-16 05:00N 61°36' W 071°54'0 0.0 280 / 91014.6 3.5-2.2
2017-Sep-16 04:00N 61°36' W 071°54'0 0.0 310 / 51014.4 3.8-2.5
2017-Sep-16 03:00N 61°36' W 071°54'0 0.0 280 / 111014.3 3.8-2.2
2017-Sep-16 02:00N 61°36' W 071°54'0 0.0 270 / 91014.2 4.0-2.7
2017-Sep-16 01:00N 61°36' W 071°54'0 0.0 270 / 101012.3 4.2-2.1
2017-Sep-16 00:00N 61°36' W 071°54'0 0.0 280 / 141012.8 4.8-0.5
2017-Sep-15 23:00N 61°36' W 071°54'0 0.0 350 / 81012.4 4.8 0.2
2017-Sep-15 22:00N 61°36' W 071°54'0 0.0 030 / 171012.2 4.9 0.7
2017-Sep-15 21:00N 61°36' W 071°54'0 0.0 030 / 171012.4 4.2 1.4
2017-Sep-15 20:00N 61°36' W 071°54'0 0.0 030 / 191010.6 4.0 1.3
2017-Sep-15 19:00N 61°36' W 071°54'0 0.0 020 / 211010.2 3.9 1.3
2017-Sep-15 18:00N 61°36' W 071°54'0 0.0 020 / 191009.8 3.7 1.0
2017-Sep-15 17:00N 61°36' W 071°54'0 0.0 020 / 151009.9 3.9 1.2
2017-Sep-15 16:00N 61°36' W 071°54'0 0.0 340 / 121012.0 4.8 1.0
2017-Sep-15 15:00N 61°36' W 071°54'0 0.0 360 / 141009.6 4.4 1.5
2017-Sep-15 14:00N 61°36' W 071°54'0 0.0 010 / 131008.7 4.1 2.3
2017-Sep-15 13:00N 61°36' W 071°54'0 0.0 010 / 161008.1 4.7 2.7
2017-Sep-15 12:00N 61°36' W 071°54'0 0.0 020 / 141009.0 5.2 3.5
2017-Sep-15 11:00N 61°36' W 071°54'   360 / 61008.0 5.4 4.1

Dump ship's entire track history